sensor_id;sensor_type;location;lat;lon;timestamp;temperature;humidity
11536;DHT22;5824;49.336;8.652;2022-10-15T00:00:36;15.40;99.90
11536;DHT22;5824;49.336;8.652;2022-10-15T00:03:01;15.40;99.90
11536;DHT22;5824;49.336;8.652;2022-10-15T00:05:27;15.50;99.90
11536;DHT22;5824;49.336;8.652;2022-10-15T00:07:52;15.50;99.90
11536;DHT22;5824;49.336;8.652;2022-10-15T00:10:19;15.50;99.90
11536;DHT22;5824;49.336;8.652;2022-10-15T00:12:44;15.40;99.90
11536;DHT22;5824;49.336;8.652;2022-10-15T00:15:10;15.50;99.90
11536;DHT22;5824;49.336;8.652;2022-10-15T00:17:37;15.50;99.90
11536;DHT22;5824;49.336;8.652;2022-10-15T00:20:08;15.50;99.90
11536;DHT22;5824;49.336;8.652;2022-10-15T00:22:34;15.50;99.90
11536;DHT22;5824;49.336;8.652;2022-10-15T00:25:00;15.50;99.90
11536;DHT22;5824;49.336;8.652;2022-10-15T00:27:26;15.50;99.90
11536;DHT22;5824;49.336;8.652;2022-10-15T00:29:51;15.60;99.90
11536;DHT22;5824;49.336;8.652;2022-10-15T00:32:17;15.60;99.90
11536;DHT22;5824;49.336;8.652;2022-10-15T00:34:42;15.60;99.90
11536;DHT22;5824;49.336;8.652;2022-10-15T00:37:08;15.60;99.90
11536;DHT22;5824;49.336;8.652;2022-10-15T00:39:34;15.60;99.90
11536;DHT22;5824;49.336;8.652;2022-10-15T00:42:00;15.60;99.90
11536;DHT22;5824;49.336;8.652;2022-10-15T00:47:17;15.70;99.90
11536;DHT22;5824;49.336;8.652;2022-10-15T00:50:05;15.80;99.90
11536;DHT22;5824;49.336;8.652;2022-10-15T00:55:28;15.80;99.90
11536;DHT22;5824;49.336;8.652;2022-10-15T00:57:55;15.80;99.90
11536;DHT22;5824;49.336;8.652;2022-10-15T01:00:21;15.80;99.90
11536;DHT22;5824;49.336;8.652;2022-10-15T01:02:47;15.80;99.90
11536;DHT22;5824;49.336;8.652;2022-10-15T01:05:14;15.80;99.90
11536;DHT22;5824;49.336;8.652;2022-10-15T01:07:40;15.90;99.90
11536;DHT22;5824;49.336;8.652;2022-10-15T01:10:06;16.10;99.90
11536;DHT22;5824;49.336;8.652;2022-10-15T01:13:00;15.90;99.90
11536;DHT22;5824;49.336;8.652;2022-10-15T01:21:15;16.00;99.90
11536;DHT22;5824;49.336;8.652;2022-10-15T01:27:34;16.00;99.90
11536;DHT22;5824;49.336;8.652;2022-10-15T01:30:19;16.00;99.90
11536;DHT22;5824;49.336;8.652;2022-10-15T01:38:22;16.10;99.90
11536;DHT22;5824;49.336;8.652;2022-10-15T01:40:54;16.30;99.90
11536;DHT22;5824;49.336;8.652;2022-10-15T01:43:32;16.10;99.90
11536;DHT22;5824;49.336;8.652;2022-10-15T01:46:04;16.10;99.90
11536;DHT22;5824;49.336;8.652;2022-10-15T01:48:33;16.10;99.90
11536;DHT22;5824;49.336;8.652;2022-10-15T01:51:02;16.20;99.90
11536;DHT22;5824;49.336;8.652;2022-10-15T01:53:30;16.20;99.90
11536;DHT22;5824;49.336;8.652;2022-10-15T01:56:02;16.20;99.90
11536;DHT22;5824;49.336;8.652;2022-10-15T01:58:29;16.20;99.90
11536;DHT22;5824;49.336;8.652;2022-10-15T02:00:57;16.20;99.90
11536;DHT22;5824;49.336;8.652;2022-10-15T02:03:23;16.20;99.90
11536;DHT22;5824;49.336;8.652;2022-10-15T02:06:05;16.20;99.90
11536;DHT22;5824;49.336;8.652;2022-10-15T02:14:52;16.20;99.90
11536;DHT22;5824;49.336;8.652;2022-10-15T02:17:24;16.30;99.90
11536;DHT22;5824;49.336;8.652;2022-10-15T02:20:22;16.30;99.90
11536;DHT22;5824;49.336;8.652;2022-10-15T02:22:55;16.30;99.90
11536;DHT22;5824;49.336;8.652;2022-10-15T02:25:24;16.30;99.90
11536;DHT22;5824;49.336;8.652;2022-10-15T02:27:53;16.30;99.90
11536;DHT22;5824;49.336;8.652;2022-10-15T02:30:20;16.30;99.90
11536;DHT22;5824;49.336;8.652;2022-10-15T02:32:51;16.30;99.90
11536;DHT22;5824;49.336;8.652;2022-10-15T02:35:18;16.40;99.90
11536;DHT22;5824;49.336;8.652;2022-10-15T02:37:47;16.30;99.90
11536;DHT22;5824;49.336;8.652;2022-10-15T02:40:14;16.30;99.90
11536;DHT22;5824;49.336;8.652;2022-10-15T02:42:39;16.30;99.90
11536;DHT22;5824;49.336;8.652;2022-10-15T02:45:05;16.40;99.90
11536;DHT22;5824;49.336;8.652;2022-10-15T02:47:31;16.40;99.90
11536;DHT22;5824;49.336;8.652;2022-10-15T02:49:57;16.40;99.90
11536;DHT22;5824;49.336;8.652;2022-10-15T02:52:22;16.40;99.90
11536;DHT22;5824;49.336;8.652;2022-10-15T02:54:48;16.30;99.90
11536;DHT22;5824;49.336;8.652;2022-10-15T02:57:13;16.40;99.90
11536;DHT22;5824;49.336;8.652;2022-10-15T02:59:39;16.40;99.90
11536;DHT22;5824;49.336;8.652;2022-10-15T03:02:05;16.40;99.90
11536;DHT22;5824;49.336;8.652;2022-10-15T03:04:30;16.40;99.90
11536;DHT22;5824;49.336;8.652;2022-10-15T03:06:56;16.40;99.90
11536;DHT22;5824;49.336;8.652;2022-10-15T03:09:21;16.40;99.90
11536;DHT22;5824;49.336;8.652;2022-10-15T03:11:47;16.40;99.90
11536;DHT22;5824;49.336;8.652;2022-10-15T03:14:12;16.40;99.90
11536;DHT22;5824;49.336;8.652;2022-10-15T03:16:38;16.40;99.90
11536;DHT22;5824;49.336;8.652;2022-10-15T03:19:03;16.40;99.90
11536;DHT22;5824;49.336;8.652;2022-10-15T03:21:29;16.40;99.90
11536;DHT22;5824;49.336;8.652;2022-10-15T03:23:56;16.70;99.90
11536;DHT22;5824;49.336;8.652;2022-10-15T03:26:22;16.40;99.90
11536;DHT22;5824;49.336;8.652;2022-10-15T03:28:48;16.50;99.90
11536;DHT22;5824;49.336;8.652;2022-10-15T03:31:13;16.50;99.90
11536;DHT22;5824;49.336;8.652;2022-10-15T03:33:39;16.50;99.90
11536;DHT22;5824;49.336;8.652;2022-10-15T03:36:05;16.50;99.90
11536;DHT22;5824;49.336;8.652;2022-10-15T03:38:31;16.50;99.90
11536;DHT22;5824;49.336;8.652;2022-10-15T03:40:57;16.50;99.90
11536;DHT22;5824;49.336;8.652;2022-10-15T03:43:23;16.50;99.90
11536;DHT22;5824;49.336;8.652;2022-10-15T03:45:50;16.50;99.90
11536;DHT22;5824;49.336;8.652;2022-10-15T03:48:16;16.50;99.90
11536;DHT22;5824;49.336;8.652;2022-10-15T03:50:41;16.50;99.90
11536;DHT22;5824;49.336;8.652;2022-10-15T03:53:07;16.60;99.90
11536;DHT22;5824;49.336;8.652;2022-10-15T03:55:32;16.50;99.90
11536;DHT22;5824;49.336;8.652;2022-10-15T03:57:58;16.50;99.90
11536;DHT22;5824;49.336;8.652;2022-10-15T04:00:24;16.50;99.90
11536;DHT22;5824;49.336;8.652;2022-10-15T04:02:49;16.50;99.90
11536;DHT22;5824;49.336;8.652;2022-10-15T04:05:15;16.50;99.90
11536;DHT22;5824;49.336;8.652;2022-10-15T04:07:40;16.60;99.90
11536;DHT22;5824;49.336;8.652;2022-10-15T04:10:07;16.60;99.90
11536;DHT22;5824;49.336;8.652;2022-10-15T04:12:33;16.50;99.90
11536;DHT22;5824;49.336;8.652;2022-10-15T04:14:59;16.60;99.90
11536;DHT22;5824;49.336;8.652;2022-10-15T04:17:24;16.60;99.90
11536;DHT22;5824;49.336;8.652;2022-10-15T04:19:50;16.60;99.90
11536;DHT22;5824;49.336;8.652;2022-10-15T04:22:15;16.60;99.90
11536;DHT22;5824;49.336;8.652;2022-10-15T04:24:41;16.60;99.90
11536;DHT22;5824;49.336;8.652;2022-10-15T04:27:06;16.60;99.90
11536;DHT22;5824;49.336;8.652;2022-10-15T04:29:32;16.70;99.90
11536;DHT22;5824;49.336;8.652;2022-10-15T04:31:58;16.70;99.90
11536;DHT22;5824;49.336;8.652;2022-10-15T04:34:24;16.60;99.90
11536;DHT22;5824;49.336;8.652;2022-10-15T04:36:49;17.50;99.90
11536;DHT22;5824;49.336;8.652;2022-10-15T04:39:16;16.60;99.90
11536;DHT22;5824;49.336;8.652;2022-10-15T04:41:42;16.60;99.90
11536;DHT22;5824;49.336;8.652;2022-10-15T04:44:07;16.60;99.90
11536;DHT22;5824;49.336;8.652;2022-10-15T04:46:33;16.70;99.90
11536;DHT22;5824;49.336;8.652;2022-10-15T04:48:58;16.70;99.90
11536;DHT22;5824;49.336;8.652;2022-10-15T04:51:25;16.70;99.90
11536;DHT22;5824;49.336;8.652;2022-10-15T04:53:50;16.70;99.90
11536;DHT22;5824;49.336;8.652;2022-10-15T04:56:18;16.70;99.90
11536;DHT22;5824;49.336;8.652;2022-10-15T04:58:45;16.70;99.90
11536;DHT22;5824;49.336;8.652;2022-10-15T05:01:13;16.80;99.90
11536;DHT22;5824;49.336;8.652;2022-10-15T05:03:40;16.80;99.90
11536;DHT22;5824;49.336;8.652;2022-10-15T05:06:18;16.80;99.90
11536;DHT22;5824;49.336;8.652;2022-10-15T05:08:45;16.80;99.90
11536;DHT22;5824;49.336;8.652;2022-10-15T05:11:26;16.70;99.90
11536;DHT22;5824;49.336;8.652;2022-10-15T05:13:54;16.70;99.90
11536;DHT22;5824;49.336;8.652;2022-10-15T05:16:26;16.70;99.90
11536;DHT22;5824;49.336;8.652;2022-10-15T05:18:56;16.70;99.90
11536;DHT22;5824;49.336;8.652;2022-10-15T05:21:22;16.80;99.90
11536;DHT22;5824;49.336;8.652;2022-10-15T05:23:47;16.80;99.90
11536;DHT22;5824;49.336;8.652;2022-10-15T05:26:20;16.80;99.90
11536;DHT22;5824;49.336;8.652;2022-10-15T05:28:46;16.80;99.90
11536;DHT22;5824;49.336;8.652;2022-10-15T05:31:13;17.00;99.90
11536;DHT22;5824;49.336;8.652;2022-10-15T05:33:40;16.80;99.90
11536;DHT22;5824;49.336;8.652;2022-10-15T05:36:11;16.80;99.90
11536;DHT22;5824;49.336;8.652;2022-10-15T05:38:38;16.80;99.90
11536;DHT22;5824;49.336;8.652;2022-10-15T05:41:03;16.80;99.90
11536;DHT22;5824;49.336;8.652;2022-10-15T05:43:29;16.80;99.90
11536;DHT22;5824;49.336;8.652;2022-10-15T05:45:55;16.80;99.90
11536;DHT22;5824;49.336;8.652;2022-10-15T05:48:21;16.70;99.90
11536;DHT22;5824;49.336;8.652;2022-10-15T05:50:47;16.80;99.90
11536;DHT22;5824;49.336;8.652;2022-10-15T05:53:12;16.80;99.90
11536;DHT22;5824;49.336;8.652;2022-10-15T05:55:38;17.00;99.90
11536;DHT22;5824;49.336;8.652;2022-10-15T05:58:04;16.80;99.90
11536;DHT22;5824;49.336;8.652;2022-10-15T06:00:30;16.80;99.90
11536;DHT22;5824;49.336;8.652;2022-10-15T06:02:56;16.80;99.90
11536;DHT22;5824;49.336;8.652;2022-10-15T06:05:22;16.80;99.90
11536;DHT22;5824;49.336;8.652;2022-10-15T06:07:47;16.80;99.90
11536;DHT22;5824;49.336;8.652;2022-10-15T06:10:13;16.80;99.90
11536;DHT22;5824;49.336;8.652;2022-10-15T06:12:39;16.80;99.90
11536;DHT22;5824;49.336;8.652;2022-10-15T06:15:05;16.80;99.90
11536;DHT22;5824;49.336;8.652;2022-10-15T06:17:31;16.70;99.90
11536;DHT22;5824;49.336;8.652;2022-10-15T06:19:57;16.70;99.90
11536;DHT22;5824;49.336;8.652;2022-10-15T06:22:22;16.70;99.90
11536;DHT22;5824;49.336;8.652;2022-10-15T06:24:48;16.70;99.90
11536;DHT22;5824;49.336;8.652;2022-10-15T06:27:14;16.80;99.90
11536;DHT22;5824;49.336;8.652;2022-10-15T06:29:39;16.70;99.90
11536;DHT22;5824;49.336;8.652;2022-10-15T06:32:09;16.70;99.90
11536;DHT22;5824;49.336;8.652;2022-10-15T06:34:34;16.70;99.90
11536;DHT22;5824;49.336;8.652;2022-10-15T06:37:00;16.60;99.90
11536;DHT22;5824;49.336;8.652;2022-10-15T06:39:26;16.70;99.90
11536;DHT22;5824;49.336;8.652;2022-10-15T06:41:52;16.70;99.90
11536;DHT22;5824;49.336;8.652;2022-10-15T06:44:17;16.70;99.90
11536;DHT22;5824;49.336;8.652;2022-10-15T06:46:43;16.80;99.90
11536;DHT22;5824;49.336;8.652;2022-10-15T06:49:08;16.70;99.90
11536;DHT22;5824;49.336;8.652;2022-10-15T06:51:34;16.70;99.90
11536;DHT22;5824;49.336;8.652;2022-10-15T06:54:02;16.70;99.90
11536;DHT22;5824;49.336;8.652;2022-10-15T06:56:27;16.80;99.90
11536;DHT22;5824;49.336;8.652;2022-10-15T06:58:53;16.70;99.90
11536;DHT22;5824;49.336;8.652;2022-10-15T07:01:18;16.70;99.90
11536;DHT22;5824;49.336;8.652;2022-10-15T07:03:47;16.70;99.90
11536;DHT22;5824;49.336;8.652;2022-10-15T07:06:12;16.70;99.90
11536;DHT22;5824;49.336;8.652;2022-10-15T07:08:38;16.70;99.90
11536;DHT22;5824;49.336;8.652;2022-10-15T07:11:05;16.70;99.90
11536;DHT22;5824;49.336;8.652;2022-10-15T07:13:31;16.90;99.90
11536;DHT22;5824;49.336;8.652;2022-10-15T07:15:57;16.90;99.90
11536;DHT22;5824;49.336;8.652;2022-10-15T07:18:23;16.90;99.90
11536;DHT22;5824;49.336;8.652;2022-10-15T07:20:48;16.90;99.90
11536;DHT22;5824;49.336;8.652;2022-10-15T07:23:14;16.90;99.90
11536;DHT22;5824;49.336;8.652;2022-10-15T07:25:39;16.90;99.90
11536;DHT22;5824;49.336;8.652;2022-10-15T07:28:05;16.90;99.90
11536;DHT22;5824;49.336;8.652;2022-10-15T07:30:31;16.90;99.90
11536;DHT22;5824;49.336;8.652;2022-10-15T07:32:57;16.80;99.90
11536;DHT22;5824;49.336;8.652;2022-10-15T07:35:25;16.70;99.90
11536;DHT22;5824;49.336;8.652;2022-10-15T07:37:50;16.60;99.90
11536;DHT22;5824;49.336;8.652;2022-10-15T07:40:17;16.70;99.90
11536;DHT22;5824;49.336;8.652;2022-10-15T07:42:42;16.70;99.90
11536;DHT22;5824;49.336;8.652;2022-10-15T07:45:08;16.70;99.90
11536;DHT22;5824;49.336;8.652;2022-10-15T07:47:34;16.70;99.90
11536;DHT22;5824;49.336;8.652;2022-10-15T07:49:59;16.80;99.90
11536;DHT22;5824;49.336;8.652;2022-10-15T07:52:25;16.80;99.90
11536;DHT22;5824;49.336;8.652;2022-10-15T07:54:51;16.80;99.90
11536;DHT22;5824;49.336;8.652;2022-10-15T07:57:16;16.90;99.90
11536;DHT22;5824;49.336;8.652;2022-10-15T07:59:42;16.80;99.90
11536;DHT22;5824;49.336;8.652;2022-10-15T08:02:17;16.80;99.90
11536;DHT22;5824;49.336;8.652;2022-10-15T08:04:43;16.90;99.90
11536;DHT22;5824;49.336;8.652;2022-10-15T08:07:09;16.90;99.90
11536;DHT22;5824;49.336;8.652;2022-10-15T08:09:35;16.80;99.90
11536;DHT22;5824;49.336;8.652;2022-10-15T08:12:00;16.80;99.90
11536;DHT22;5824;49.336;8.652;2022-10-15T08:14:26;16.80;99.90
11536;DHT22;5824;49.336;8.652;2022-10-15T08:16:52;16.80;99.90
11536;DHT22;5824;49.336;8.652;2022-10-15T08:19:17;16.80;99.90
11536;DHT22;5824;49.336;8.652;2022-10-15T08:21:44;16.90;99.90
11536;DHT22;5824;49.336;8.652;2022-10-15T08:24:09;16.90;99.90
11536;DHT22;5824;49.336;8.652;2022-10-15T08:26:35;16.90;99.90
11536;DHT22;5824;49.336;8.652;2022-10-15T08:29:01;16.90;99.90
11536;DHT22;5824;49.336;8.652;2022-10-15T08:31:26;16.80;99.90
11536;DHT22;5824;49.336;8.652;2022-10-15T08:33:52;16.70;99.90
11536;DHT22;5824;49.336;8.652;2022-10-15T08:36:18;16.60;99.90
11536;DHT22;5824;49.336;8.652;2022-10-15T08:38:43;16.60;99.90
11536;DHT22;5824;49.336;8.652;2022-10-15T08:41:33;16.70;99.90
11536;DHT22;5824;49.336;8.652;2022-10-15T08:44:00;16.70;99.90
11536;DHT22;5824;49.336;8.652;2022-10-15T08:46:35;16.70;99.90
11536;DHT22;5824;49.336;8.652;2022-10-15T08:49:02;16.80;99.90
11536;DHT22;5824;49.336;8.652;2022-10-15T08:51:40;16.80;99.90
11536;DHT22;5824;49.336;8.652;2022-10-15T08:54:14;16.80;99.90
11536;DHT22;5824;49.336;8.652;2022-10-15T08:56:44;16.80;99.90
11536;DHT22;5824;49.336;8.652;2022-10-15T09:01:49;16.90;99.90
11536;DHT22;5824;49.336;8.652;2022-10-15T09:07:11;16.90;99.90
11536;DHT22;5824;49.336;8.652;2022-10-15T09:09:51;17.00;99.90
11536;DHT22;5824;49.336;8.652;2022-10-15T09:14:58;17.00;99.90
11536;DHT22;5824;49.336;8.652;2022-10-15T09:17:28;17.00;99.90
11536;DHT22;5824;49.336;8.652;2022-10-15T09:19:56;17.00;99.90
11536;DHT22;5824;49.336;8.652;2022-10-15T09:22:25;17.00;99.90
11536;DHT22;5824;49.336;8.652;2022-10-15T09:24:51;16.90;99.90
11536;DHT22;5824;49.336;8.652;2022-10-15T09:35:24;17.00;99.90
11536;DHT22;5824;49.336;8.652;2022-10-15T09:43:29;16.90;99.90
11536;DHT22;5824;49.336;8.652;2022-10-15T09:45:56;17.00;99.90
11536;DHT22;5824;49.336;8.652;2022-10-15T09:48:22;17.00;99.90
11536;DHT22;5824;49.336;8.652;2022-10-15T09:50:59;17.10;99.90
11536;DHT22;5824;49.336;8.652;2022-10-15T09:53:55;17.10;99.90
11536;DHT22;5824;49.336;8.652;2022-10-15T09:56:33;17.10;99.90
11536;DHT22;5824;49.336;8.652;2022-10-15T09:58:59;17.10;99.90
11536;DHT22;5824;49.336;8.652;2022-10-15T10:01:28;17.20;99.90
11536;DHT22;5824;49.336;8.652;2022-10-15T10:04:14;17.20;99.90
11536;DHT22;5824;49.336;8.652;2022-10-15T10:06:51;17.30;99.90
11536;DHT22;5824;49.336;8.652;2022-10-15T10:11:54;17.40;99.90
11536;DHT22;5824;49.336;8.652;2022-10-15T10:14:35;17.50;99.90
11536;DHT22;5824;49.336;8.652;2022-10-15T10:19:36;17.50;99.90
11536;DHT22;5824;49.336;8.652;2022-10-15T10:22:42;17.60;99.90
11536;DHT22;5824;49.336;8.652;2022-10-15T10:25:38;17.70;99.90
11536;DHT22;5824;49.336;8.652;2022-10-15T10:31:00;17.80;99.60
11536;DHT22;5824;49.336;8.652;2022-10-15T10:33:46;17.90;99.50
11536;DHT22;5824;49.336;8.652;2022-10-15T10:36:30;18.00;97.10
11536;DHT22;5824;49.336;8.652;2022-10-15T10:41:52;18.50;91.30
11536;DHT22;5824;49.336;8.652;2022-10-15T10:44:32;18.70;86.40
11536;DHT22;5824;49.336;8.652;2022-10-15T10:47:08;19.10;74.80
11536;DHT22;5824;49.336;8.652;2022-10-15T10:52:34;20.40;46.80
11536;DHT22;5824;49.336;8.652;2022-10-15T10:55:16;20.80;47.00
11536;DHT22;5824;49.336;8.652;2022-10-15T10:58:02;20.50;15.80
11536;DHT22;5824;49.336;8.652;2022-10-15T11:00:38;20.20;25.50
11536;DHT22;5824;49.336;8.652;2022-10-15T11:03:05;20.30;35.30
11536;DHT22;5824;49.336;8.652;2022-10-15T11:05:32;20.70;29.40
11536;DHT22;5824;49.336;8.652;2022-10-15T11:08:21;21.40;24.00
11536;DHT22;5824;49.336;8.652;2022-10-15T11:16:23;20.00;16.40
11536;DHT22;5824;49.336;8.652;2022-10-15T11:21:42;19.30;29.20
11536;DHT22;5824;49.336;8.652;2022-10-15T11:24:15;19.30;31.90
11536;DHT22;5824;49.336;8.652;2022-10-15T11:27:02;19.30;45.80
11536;DHT22;5824;49.336;8.652;2022-10-15T11:29:55;19.40;38.30
11536;DHT22;5824;49.336;8.652;2022-10-15T11:35:16;19.10;45.60
11536;DHT22;5824;49.336;8.652;2022-10-15T11:37:48;18.90;45.40
11536;DHT22;5824;49.336;8.652;2022-10-15T11:43:22;18.70;45.30
11536;DHT22;5824;49.336;8.652;2022-10-15T11:46:06;18.70;45.30
11536;DHT22;5824;49.336;8.652;2022-10-15T11:51:33;18.60;45.10
11536;DHT22;5824;49.336;8.652;2022-10-15T11:54:25;18.50;45.10
11536;DHT22;5824;49.336;8.652;2022-10-15T11:56:55;18.30;44.40
11536;DHT22;5824;49.336;8.652;2022-10-15T11:59:29;18.30;45.00
11536;DHT22;5824;49.336;8.652;2022-10-15T12:02:00;18.30;45.00
11536;DHT22;5824;49.336;8.652;2022-10-15T12:04:47;18.40;45.20
11536;DHT22;5824;49.336;8.652;2022-10-15T12:07:24;18.50;35.30
11536;DHT22;5824;49.336;8.652;2022-10-15T12:09:53;18.50;43.80
11536;DHT22;5824;49.336;8.652;2022-10-15T12:12:35;18.60;43.00
11536;DHT22;5824;49.336;8.652;2022-10-15T12:20:45;18.50;31.50
11536;DHT22;5824;49.336;8.652;2022-10-15T12:26:01;18.40;39.70
11536;DHT22;5824;49.336;8.652;2022-10-15T12:28:29;18.30;38.80
11536;DHT22;5824;49.336;8.652;2022-10-15T12:33:34;18.30;44.70
11536;DHT22;5824;49.336;8.652;2022-10-15T12:36:07;18.30;45.00
11536;DHT22;5824;49.336;8.652;2022-10-15T12:41:33;18.40;44.40
11536;DHT22;5824;49.336;8.652;2022-10-15T12:44:06;18.40;41.40
11536;DHT22;5824;49.336;8.652;2022-10-15T12:46:37;18.50;44.60
11536;DHT22;5824;49.336;8.652;2022-10-15T12:51:52;18.50;24.80
11536;DHT22;5824;49.336;8.652;2022-10-15T12:54:39;18.60;21.70
11536;DHT22;5824;49.336;8.652;2022-10-15T12:59:57;18.50;21.50
11536;DHT22;5824;49.336;8.652;2022-10-15T13:02:41;18.60;21.80
11536;DHT22;5824;49.336;8.652;2022-10-15T13:05:22;18.60;21.10
11536;DHT22;5824;49.336;8.652;2022-10-15T13:07:48;18.60;21.90
11536;DHT22;5824;49.336;8.652;2022-10-15T13:10:20;18.50;21.30
11536;DHT22;5824;49.336;8.652;2022-10-15T13:12:58;18.40;24.30
11536;DHT22;5824;49.336;8.652;2022-10-15T13:15:26;18.40;26.10
11536;DHT22;5824;49.336;8.652;2022-10-15T13:17:54;18.50;27.50
11536;DHT22;5824;49.336;8.652;2022-10-15T13:20:36;18.40;33.60
11536;DHT22;5824;49.336;8.652;2022-10-15T13:23:25;18.00;44.70
11536;DHT22;5824;49.336;8.652;2022-10-15T13:28:38;17.70;71.40
11536;DHT22;5824;49.336;8.652;2022-10-15T13:31:27;17.60;75.00
11536;DHT22;5824;49.336;8.652;2022-10-15T13:33:57;17.60;86.10
11536;DHT22;5824;49.336;8.652;2022-10-15T13:36:26;17.80;80.90
11536;DHT22;5824;49.336;8.652;2022-10-15T13:38:58;17.90;64.10
11536;DHT22;5824;49.336;8.652;2022-10-15T13:41:25;17.90;58.90
11536;DHT22;5824;49.336;8.652;2022-10-15T13:43:53;17.90;51.10
11536;DHT22;5824;49.336;8.652;2022-10-15T13:46:24;17.50;46.40
11536;DHT22;5824;49.336;8.652;2022-10-15T13:48:56;18.20;45.00
11536;DHT22;5824;49.336;8.652;2022-10-15T13:51:22;18.40;45.10
11536;DHT22;5824;49.336;8.652;2022-10-15T13:53:49;18.70;45.40
11536;DHT22;5824;49.336;8.652;2022-10-15T13:56:24;18.50;37.30
11536;DHT22;5824;49.336;8.652;2022-10-15T13:58:50;18.50;40.80
11536;DHT22;5824;49.336;8.652;2022-10-15T14:01:22;18.50;45.10
11536;DHT22;5824;49.336;8.652;2022-10-15T14:03:51;18.50;45.10
11536;DHT22;5824;49.336;8.652;2022-10-15T14:06:33;18.50;45.00
11536;DHT22;5824;49.336;8.652;2022-10-15T14:09:22;18.40;41.90
11536;DHT22;5824;49.336;8.652;2022-10-15T14:11:48;18.30;38.60
11536;DHT22;5824;49.336;8.652;2022-10-15T14:14:42;18.30;39.50
11536;DHT22;5824;49.336;8.652;2022-10-15T14:19:47;18.20;44.70
11536;DHT22;5824;49.336;8.652;2022-10-15T14:22:18;18.20;44.80
11536;DHT22;5824;49.336;8.652;2022-10-15T14:24:46;18.20;44.00
11536;DHT22;5824;49.336;8.652;2022-10-15T14:27:23;18.20;38.00
11536;DHT22;5824;49.336;8.652;2022-10-15T14:29:59;18.70;36.10
11536;DHT22;5824;49.336;8.652;2022-10-15T14:32:26;18.20;39.80
11536;DHT22;5824;49.336;8.652;2022-10-15T14:34:57;18.20;40.60
11536;DHT22;5824;49.336;8.652;2022-10-15T14:42:49;18.00;44.70
11536;DHT22;5824;49.336;8.652;2022-10-15T14:45:27;17.90;44.60
11536;DHT22;5824;49.336;8.652;2022-10-15T14:48:05;17.90;44.60
11536;DHT22;5824;49.336;8.652;2022-10-15T14:50:33;17.80;44.90
11536;DHT22;5824;49.336;8.652;2022-10-15T14:53:05;17.50;64.80
11536;DHT22;5824;49.336;8.652;2022-10-15T14:55:37;17.20;79.10
11536;DHT22;5824;49.336;8.652;2022-10-15T14:58:10;17.10;91.50
11536;DHT22;5824;49.336;8.652;2022-10-15T15:00:41;17.00;94.90
11536;DHT22;5824;49.336;8.652;2022-10-15T15:03:25;16.90;96.10
11536;DHT22;5824;49.336;8.652;2022-10-15T15:05:53;16.90;98.30
11536;DHT22;5824;49.336;8.652;2022-10-15T15:08:21;16.90;99.90
11536;DHT22;5824;49.336;8.652;2022-10-15T15:10:48;16.90;99.90
11536;DHT22;5824;49.336;8.652;2022-10-15T15:13:21;17.00;99.20
11536;DHT22;5824;49.336;8.652;2022-10-15T15:15:48;17.10;99.90
11536;DHT22;5824;49.336;8.652;2022-10-15T15:18:13;17.00;98.10
11536;DHT22;5824;49.336;8.652;2022-10-15T15:20:40;17.00;98.00
11536;DHT22;5824;49.336;8.652;2022-10-15T15:23:11;17.00;99.20
11536;DHT22;5824;49.336;8.652;2022-10-15T15:25:39;17.00;97.90
11536;DHT22;5824;49.336;8.652;2022-10-15T15:28:12;17.00;98.90
11536;DHT22;5824;49.336;8.652;2022-10-15T15:30:40;17.00;99.00
11536;DHT22;5824;49.336;8.652;2022-10-15T15:33:13;17.00;97.60
11536;DHT22;5824;49.336;8.652;2022-10-15T15:35:50;17.00;99.30
11536;DHT22;5824;49.336;8.652;2022-10-15T15:38:20;17.00;99.00
11536;DHT22;5824;49.336;8.652;2022-10-15T15:40:46;17.00;99.90
11536;DHT22;5824;49.336;8.652;2022-10-15T15:43:15;17.00;99.90
11536;DHT22;5824;49.336;8.652;2022-10-15T15:45:41;17.00;99.90
11536;DHT22;5824;49.336;8.652;2022-10-15T15:48:07;17.00;99.90
11536;DHT22;5824;49.336;8.652;2022-10-15T15:50:33;17.00;99.30
11536;DHT22;5824;49.336;8.652;2022-10-15T15:52:59;17.00;99.90
11536;DHT22;5824;49.336;8.652;2022-10-15T15:55:24;17.10;99.90
11536;DHT22;5824;49.336;8.652;2022-10-15T15:57:50;17.00;97.40
11536;DHT22;5824;49.336;8.652;2022-10-15T16:00:16;17.20;99.20
11536;DHT22;5824;49.336;8.652;2022-10-15T16:02:41;17.00;97.60
11536;DHT22;5824;49.336;8.652;2022-10-15T16:05:08;17.20;98.10
11536;DHT22;5824;49.336;8.652;2022-10-15T16:07:35;17.10;96.70
11536;DHT22;5824;49.336;8.652;2022-10-15T16:10:00;17.10;97.10
11536;DHT22;5824;49.336;8.652;2022-10-15T16:12:26;17.10;96.90
11536;DHT22;5824;49.336;8.652;2022-10-15T16:14:51;17.20;98.30
11536;DHT22;5824;49.336;8.652;2022-10-15T16:17:17;17.10;93.80
11536;DHT22;5824;49.336;8.652;2022-10-15T16:19:43;17.20;94.70
11536;DHT22;5824;49.336;8.652;2022-10-15T16:22:08;17.10;92.60
11536;DHT22;5824;49.336;8.652;2022-10-15T16:24:34;17.00;92.70
11536;DHT22;5824;49.336;8.652;2022-10-15T16:27:00;16.90;94.30
11536;DHT22;5824;49.336;8.652;2022-10-15T16:29:25;16.90;98.30
11536;DHT22;5824;49.336;8.652;2022-10-15T16:31:51;16.80;99.90
11536;DHT22;5824;49.336;8.652;2022-10-15T16:34:16;16.80;99.90
11536;DHT22;5824;49.336;8.652;2022-10-15T16:36:42;18.30;99.90
11536;DHT22;5824;49.336;8.652;2022-10-15T16:39:08;17.00;99.90
11536;DHT22;5824;49.336;8.652;2022-10-15T16:41:34;17.20;99.90
11536;DHT22;5824;49.336;8.652;2022-10-15T16:43:59;17.20;99.90
11536;DHT22;5824;49.336;8.652;2022-10-15T16:46:25;17.10;99.90
11536;DHT22;5824;49.336;8.652;2022-10-15T16:48:52;17.10;99.90
11536;DHT22;5824;49.336;8.652;2022-10-15T16:51:18;17.20;99.90
11536;DHT22;5824;49.336;8.652;2022-10-15T16:53:45;17.20;99.90
11536;DHT22;5824;49.336;8.652;2022-10-15T16:56:21;17.00;99.90
11536;DHT22;5824;49.336;8.652;2022-10-15T16:58:47;17.50;99.90
11536;DHT22;5824;49.336;8.652;2022-10-15T17:01:18;16.80;99.90
11536;DHT22;5824;49.336;8.652;2022-10-15T17:03:44;16.70;99.90
11536;DHT22;5824;49.336;8.652;2022-10-15T17:06:12;16.60;99.90
11536;DHT22;5824;49.336;8.652;2022-10-15T17:08:44;16.60;99.90
11536;DHT22;5824;49.336;8.652;2022-10-15T17:11:20;16.20;99.90
11536;DHT22;5824;49.336;8.652;2022-10-15T17:13:47;17.20;99.90
11536;DHT22;5824;49.336;8.652;2022-10-15T17:18:39;16.50;99.90
11536;DHT22;5824;49.336;8.652;2022-10-15T17:21:08;16.40;99.90
11536;DHT22;5824;49.336;8.652;2022-10-15T17:23:34;16.40;99.90
11536;DHT22;5824;49.336;8.652;2022-10-15T17:26:07;16.40;99.90
11536;DHT22;5824;49.336;8.652;2022-10-15T17:28:33;16.40;99.90
11536;DHT22;5824;49.336;8.652;2022-10-15T17:31:07;16.40;99.90
11536;DHT22;5824;49.336;8.652;2022-10-15T17:33:35;16.40;99.90
11536;DHT22;5824;49.336;8.652;2022-10-15T17:36:05;16.40;99.90
11536;DHT22;5824;49.336;8.652;2022-10-15T17:38:31;16.40;99.90
11536;DHT22;5824;49.336;8.652;2022-10-15T17:40:57;16.40;99.90
11536;DHT22;5824;49.336;8.652;2022-10-15T17:43:24;16.50;99.90
11536;DHT22;5824;49.336;8.652;2022-10-15T17:46:00;16.50;99.90
11536;DHT22;5824;49.336;8.652;2022-10-15T17:48:26;16.50;99.90
11536;DHT22;5824;49.336;8.652;2022-10-15T17:50:52;16.50;99.90